CZBF

Bathurst Airport

Bathurst, New Brunswick, Canada
METAR CZBF 220500Z 24003KT 15SM SKC 06/04 A2992 RMK SLP136
Observed Flight Rules
Jun-22 @ 05:00 UTC (47 minutes ago) Visual Flight Rules
Wind Visibility Clouds
240° at 3 knots 15 miles
  • Clear skies
Temperatures Readings
Current 6°C / 43°F
Dewpoint 4°C / 39°F
Humidity 87%
Altimeter 29.92" Hg
Pressure 1013.6 hPa
Elevation 59
METAR CZBF 220500Z 24003KT 15SM SKC 06/04 A2992 RMK SLP136
Observed Flight Rules
Jun-22 @ 05:00 UTC
(47 minutes ago)
VFR
Wind Visibility
240° at 3 knots 15 miles
Clouds
  • Clear skies
Temperature Dewpoint
6°C / 43°F 4°C / 39°F
Humidity Altimeter Pressure
87% 29.92" Hg 1013.6 hPa